Time;durP1;ratioP1;P1;durP2;ratioP2;P2;SDS_P1;SDS_P2;PMS_P1;PMS_P2;Temp;Humidity;BMP_temperature;BMP_pressure;BME280_temperature;BME280_humidity;BME280_pressure;Samples;Min_cycle;Max_cycle;Signal;HPM_P1;HPM_P2
2024/02/24 00:00:50;;;;;;;2.50;2.20;;;;;;;7.32;91.51;95208.24;108860;1271;23113;-76
2024/02/24 00:03:42;;;;;;;2.80;2.20;;;;;;;7.27;91.40;95206.89;108908;1265;22866;-76
2024/02/24 00:06:14;;;;;;;4.10;3.60;;;;;;;7.25;91.38;95210.22;108889;1271;25210;-76
2024/02/24 00:08:50;;;;;;;4.70;4.20;;;;;;;7.41;91.92;95215.35;108875;1264;22532;-76
2024/02/24 00:11:27;;;;;;;4.10;3.70;;;;;;;7.50;91.48;95220.38;108861;1271;22995;-76
2024/02/24 00:14:06;;;;;;;3.30;3.00;;;;;;;7.45;91.12;95218.45;108855;1269;22517;-76
2024/02/24 00:16:38;;;;;;;3.50;3.20;;;;;;;7.41;91.04;95221.69;108765;1271;194711;-76
2024/02/24 00:19:10;;;;;;;4.00;3.40;;;;;;;7.42;91.09;95221.66;108866;1265;22521;-76
2024/02/24 00:21:41;;;;;;;5.50;4.10;;;;;;;7.36;90.79;95228.64;108879;1271;24177;-76
2024/02/24 00:24:13;;;;;;;5.10;4.10;;;;;;;7.29;90.79;95223.41;108906;1265;22564;-76
2024/02/24 00:26:48;;;;;;;4.30;3.90;;;;;;;7.25;90.84;95219.50;108904;1268;22605;-76
2024/02/24 00:29:19;;;;;;;4.90;3.80;;;;;;;7.28;90.94;95215.78;108826;1270;22540;-76
2024/02/24 00:31:53;;;;;;;3.00;2.60;;;;;;;7.27;90.57;95217.82;108887;1268;22545;-76
2024/02/24 00:34:27;;;;;;;5.10;3.90;;;;;;;7.18;90.24;95213.49;108880;1271;22517;-76
2024/02/24 00:36:58;;;;;;;5.90;4.70;;;;;;;7.05;90.27;95207.31;108919;1268;23594;-76
2024/02/24 00:39:33;;;;;;;5.10;4.20;;;;;;;7.02;90.63;95210.35;108858;1271;25364;-76
2024/02/24 00:42:10;;;;;;;5.60;3.40;;;;;;;6.94;90.48;95204.80;108875;1271;22530;-76
2024/02/24 00:44:44;;;;;;;4.40;3.70;;;;;;;6.86;90.35;95208.17;108850;1271;22521;-76
2024/02/24 00:47:25;;;;;;;6.00;4.70;;;;;;;6.90;90.99;95198.26;108871;1267;22936;-76
2024/02/24 00:49:56;;;;;;;6.30;4.80;;;;;;;7.18;91.21;95205.54;108838;1265;24146;-76
2024/02/24 00:52:27;;;;;;;6.40;4.80;;;;;;;7.39;90.59;95199.09;108852;1271;23413;-76
2024/02/24 00:55:04;;;;;;;5.10;4.20;;;;;;;7.56;90.28;95192.61;108881;1271;22545;-76
2024/02/24 00:57:36;;;;;;;7.10;5.10;;;;;;;7.73;89.68;95185.41;108846;1271;22533;-76
2024/02/24 01:00:19;;;;;;;4.60;3.60;;;;;;;7.95;89.08;95182.38;108847;1271;22544;-76
2024/02/24 01:02:51;;;;;;;5.80;4.00;;;;;;;8.25;86.35;95169.77;108847;1271;22804;-76
2024/02/24 01:05:27;;;;;;;5.40;4.00;;;;;;;8.49;84.52;95157.98;108867;1271;23340;-76
2024/02/24 01:07:58;;;;;;;6.30;4.40;;;;;;;8.62;83.06;95154.35;108882;1271;23794;-76
2024/02/24 01:10:31;;;;;;;4.90;3.50;;;;;;;8.68;81.87;95157.21;108845;1271;22536;-76
2024/02/24 01:13:05;;;;;;;8.10;4.70;;;;;;;8.67;81.52;95157.09;108883;1271;22525;-76
2024/02/24 01:15:40;;;;;;;5.40;4.50;;;;;;;8.63;82.05;95160.83;108922;1249;22530;-76
2024/02/24 01:18:15;;;;;;;8.00;6.00;;;;;;;8.59;82.41;95164.20;108903;1250;22539;-76
2024/02/24 01:20:48;;;;;;;6.90;4.50;;;;;;;8.57;82.11;95161.48;108893;1268;23936;-76
2024/02/24 01:23:25;;;;;;;7.50;4.90;;;;;;;8.62;81.84;95164.02;108921;1265;22722;-76
2024/02/24 01:26:03;;;;;;;6.10;4.70;;;;;;;8.69;80.89;95152.02;108851;1271;22642;-76
2024/02/24 01:28:37;;;;;;;6.30;4.30;;;;;;;8.67;81.14;95138.34;108903;1271;22524;-76
2024/02/24 01:31:11;;;;;;;6.30;4.60;;;;;;;8.60;80.69;95128.27;108864;1271;22557;-76
2024/02/24 01:33:45;;;;;;;7.90;5.50;;;;;;;8.61;80.41;95117.09;108915;1267;22591;-76
2024/02/24 01:36:16;;;;;;;6.60;4.90;;;;;;;8.58;80.05;95116.40;108883;1271;25291;-76
2024/02/24 01:38:49;;;;;;;6.90;5.00;;;;;;;8.54;80.21;95121.79;108880;1271;22543;-76
2024/02/24 01:41:28;;;;;;;7.40;5.70;;;;;;;8.47;80.44;95126.20;108844;1265;22847;-76
2024/02/24 01:44:02;;;;;;;8.40;5.00;;;;;;;8.45;80.32;95134.00;108881;1271;22517;-76
2024/02/24 01:46:38;;;;;;;8.10;5.20;;;;;;;8.47;80.22;95153.14;108861;1271;22526;-76
2024/02/24 01:49:12;;;;;;;6.90;5.10;;;;;;;8.48;80.17;95151.98;108850;1268;23947;-76
2024/02/24 01:51:46;;;;;;;6.70;5.40;;;;;;;8.46;80.21;95154.84;108901;1263;22523;-75
2024/02/24 01:54:24;;;;;;;7.20;5.90;;;;;;;8.45;80.52;95144.95;108890;1271;22560;-76
2024/02/24 01:57:01;;;;;;;7.30;5.70;;;;;;;8.44;80.62;95146.08;108887;1271;22531;-76
2024/02/24 01:59:38;;;;;;;7.70;5.70;;;;;;;8.42;80.58;95156.31;108908;1271;22557;-76
2024/02/24 02:02:10;;;;;;;8.80;6.20;;;;;;;8.43;80.77;95146.46;108836;1270;22514;-76
2024/02/24 02:04:43;;;;;;;8.00;5.60;;;;;;;8.44;80.88;95133.02;108803;1266;22914;-76
2024/02/24 02:07:16;;;;;;;7.70;6.00;;;;;;;8.42;80.93;95135.65;108849;1271;25239;-76
2024/02/24 02:10:00;;;;;;;6.90;5.90;;;;;;;8.39;80.96;95154.84;108876;1265;22595;-76
2024/02/24 02:12:37;;;;;;;8.20;5.00;;;;;;;8.29;80.96;95165.91;108884;1271;22535;-76
2024/02/24 02:15:11;;;;;;;7.50;5.10;;;;;;;8.32;81.31;95170.89;108935;1268;23703;-76
2024/02/24 02:17:47;;;;;;;8.60;5.40;;;;;;;8.30;81.22;95170.70;108926;1271;24039;-76
2024/02/24 02:20:20;;;;;;;8.40;6.10;;;;;;;8.24;81.35;95178.91;108867;1271;22524;-76
2024/02/24 02:22:54;;;;;;;8.10;6.80;;;;;;;8.13;81.30;95176.52;108908;1271;24151;-76
2024/02/24 02:25:26;;;;;;;7.30;5.60;;;;;;;8.04;81.49;95172.81;108872;1271;22532;-76
2024/02/24 02:28:03;;;;;;;7.70;5.30;;;;;;;7.97;81.52;95170.57;108899;1271;25261;-76
2024/02/24 02:30:37;;;;;;;;;;;;;;;7.93;81.79;95159.86;108891;1271;26436;-76
2024/02/24 02:33:11;;;;;;;7.20;5.70;;;;;;;7.84;81.73;95158.43;108881;1271;22577;-76
2024/02/24 02:35:45;;;;;;;8.80;6.30;;;;;;;7.80;81.94;95159.39;108934;1271;22525;-76
2024/02/24 02:38:19;;;;;;;8.80;5.70;;;;;;;7.80;81.98;95160.08;108921;1271;24255;-76
2024/02/24 02:40:52;;;;;;;6.90;5.20;;;;;;;7.71;81.82;95166.40;108859;1265;25554;-76
2024/02/24 02:43:25;;;;;;;6.80;5.60;;;;;;;7.62;81.90;95169.35;108889;1265;25901;-76
2024/02/24 02:46:00;;;;;;;9.50;6.10;;;;;;;7.58;82.19;95163.39;108913;1271;25384;-75
2024/02/24 02:48:36;;;;;;;9.30;6.70;;;;;;;7.55;82.42;95161.98;108916;1271;22593;-75
2024/02/24 02:51:11;;;;;;;8.20;5.50;;;;;;;7.53;82.36;95155.44;108849;1254;22799;-76
2024/02/24 02:53:43;;;;;;;6.80;5.50;;;;;;;7.44;82.25;95151.03;108849;1271;23662;-76
2024/02/24 02:56:20;;;;;;;8.00;6.20;;;;;;;7.40;82.44;95152.26;108833;1271;22527;-76
2024/02/24 02:58:52;;;;;;;8.50;6.90;;;;;;;7.39;82.50;95156.02;108847;1271;24340;-76
2024/02/24 03:01:28;;;;;;;9.80;7.20;;;;;;;7.33;82.58;95161.52;108850;1271;24199;-76
2024/02/24 03:04:00;;;;;;;7.70;5.30;;;;;;;7.32;82.69;95159.42;108799;1268;22571;-76
2024/02/24 03:06:34;;;;;;;7.70;5.00;;;;;;;7.30;82.78;95159.14;108958;1271;22521;-75
2024/02/24 03:09:09;;;;;;;8.80;5.80;;;;;;;7.23;82.85;95161.93;108891;1265;22994;-75
2024/02/24 03:11:43;;;;;;;8.00;6.10;;;;;;;7.18;82.92;95166.59;108881;1271;22527;-76
2024/02/24 03:14:16;;;;;;;8.80;6.70;;;;;;;7.15;82.99;95172.39;108880;1265;22607;-76
2024/02/24 03:16:49;;;;;;;7.60;6.30;;;;;;;7.10;83.30;95179.27;108905;1265;25247;-76
2024/02/24 03:19:23;;;;;;;8.70;6.00;;;;;;;7.10;83.35;95183.12;108868;1269;22939;-76
2024/02/24 03:21:55;;;;;;;8.20;5.70;;;;;;;7.11;83.41;95181.98;108915;1271;23642;-76
2024/02/24 03:24:29;;;;;;;8.00;6.00;;;;;;;7.06;83.36;95175.39;108883;1269;25641;-76
2024/02/24 03:27:04;;;;;;;9.10;7.00;;;;;;;6.99;83.46;95179.66;108945;1271;22516;-76
2024/02/24 03:29:36;;;;;;;7.30;6.10;;;;;;;6.98;83.64;95182.28;108860;1265;26875;-76
2024/02/24 03:32:10;;;;;;;8.90;6.10;;;;;;;6.94;83.66;95188.46;108886;1265;25578;-76
2024/02/24 03:34:50;;;;;;;8.50;5.90;;;;;;;6.88;83.63;95189.86;108864;1248;22553;-76
2024/02/24 03:37:27;;;;;;;9.40;6.50;;;;;;;6.79;83.51;95191.45;108873;1271;22520;-76
2024/02/24 03:39:59;;;;;;;8.90;6.10;;;;;;;6.78;83.82;95190.41;108834;1271;22527;-76
2024/02/24 03:42:30;;;;;;;9.60;6.50;;;;;;;6.79;83.93;95187.17;108756;1273;25455;-76
2024/02/24 03:45:05;;;;;;;7.90;6.20;;;;;;;6.71;83.64;95176.39;108794;1273;22530;-76
2024/02/24 03:47:40;;;;;;;8.90;6.20;;;;;;;6.69;83.83;95180.33;108799;1273;23947;-76
2024/02/24 03:50:15;;;;;;;9.90;7.20;;;;;;;6.78;84.20;95182.23;108813;1271;22653;-76
2024/02/24 03:52:46;;;;;;;8.00;6.40;;;;;;;6.82;84.15;95186.13;108949;1271;22520;-76
2024/02/24 03:55:17;;;;;;;9.80;7.00;;;;;;;6.85;84.22;95184.77;108940;1264;24289;-76
2024/02/24 03:57:51;;;;;;;7.60;5.80;;;;;;;6.95;84.31;95193.18;108895;1271;23283;-76
2024/02/24 04:00:24;;;;;;;10.60;7.20;;;;;;;7.06;84.14;95193.31;108879;1271;26823;-75
2024/02/24 04:02:58;;;;;;;8.50;6.10;;;;;;;7.02;83.74;95193.43;108801;1272;25664;-76
2024/02/24 04:05:37;;;;;;;9.30;6.70;;;;;;;6.99;83.92;95192.84;108828;1267;24213;-76
2024/02/24 04:08:09;;;;;;;9.40;6.90;;;;;;;7.06;83.95;95191.68;108801;1272;22507;-76
2024/02/24 04:10:40;;;;;;;8.50;6.00;;;;;;;7.02;83.80;95180.81;108782;1272;22726;-75
2024/02/24 04:13:13;;;;;;;8.00;5.50;;;;;;;7.09;84.04;95180.61;108863;1271;25242;-75
2024/02/24 04:15:54;;;;;;;8.00;6.20;;;;;;;7.09;83.51;95183.71;108881;1271;22623;-76
2024/02/24 04:18:26;;;;;;;8.10;6.70;;;;;;;6.98;83.28;95181.38;108910;1271;22546;-76
2024/02/24 04:20:58;;;;;;;9.10;6.90;;;;;;;6.89;83.23;95184.79;108848;1271;22531;-76
2024/02/24 04:23:29;;;;;;;9.90;6.80;;;;;;;6.82;83.52;95186.02;108870;1271;22524;-76
2024/02/24 04:26:02;;;;;;;9.20;6.70;;;;;;;6.75;83.45;95194.98;108854;1271;22568;-76
2024/02/24 04:28:37;;;;;;;8.10;5.60;;;;;;;6.69;83.37;95195.73;108861;1271;22528;-76
2024/02/24 04:31:11;;;;;;;9.30;5.80;;;;;;;6.67;83.45;95186.59;108848;1271;24279;-76
2024/02/24 04:33:44;;;;;;;9.50;6.00;;;;;;;6.60;83.57;95179.89;108921;1271;25656;-76
2024/02/24 04:36:16;;;;;;;7.70;6.20;;;;;;;6.53;83.29;95179.32;108897;1248;22552;-76
2024/02/24 04:38:51;;;;;;;8.30;6.20;;;;;;;6.39;83.21;95178.73;108853;1271;25388;-76
2024/02/24 04:41:29;;;;;;;6.80;6.10;;;;;;;6.25;83.50;95176.10;108828;1271;25313;-76
2024/02/24 04:44:03;;;;;;;8.30;5.20;;;;;;;6.15;83.72;95183.40;108853;1265;24359;-76
2024/02/24 04:46:35;;;;;;;4.90;4.30;;;;;;;6.10;84.02;95182.43;108832;1266;25424;-76
2024/02/24 04:49:06;;;;;;;8.70;5.10;;;;;;;6.02;83.84;95180.70;108821;1272;25461;-76
2024/02/24 04:51:40;;;;;;;7.50;5.70;;;;;;;5.92;83.92;95188.34;108896;1271;27004;-76
2024/02/24 04:54:13;;;;;;;7.40;5.40;;;;;;;5.84;84.08;95199.77;108936;1266;22516;-76
2024/02/24 04:56:44;;;;;;;7.50;5.70;;;;;;;5.67;83.42;95211.86;108907;1271;24218;-76
2024/02/24 04:59:16;;;;;;;7.20;4.70;;;;;;;5.37;83.60;95207.84;108910;1269;22514;-76
2024/02/24 05:01:47;;;;;;;8.10;4.70;;;;;;;5.30;84.11;95213.20;108817;1268;22540;-76
2024/02/24 05:04:26;;;;;;;7.60;5.60;;;;;;;5.33;84.85;95216.27;108769;1272;22543;-76
2024/02/24 05:06:57;;;;;;;8.10;6.20;;;;;;;5.38;85.23;95217.20;108792;1272;22541;-76
2024/02/24 05:09:32;;;;;;;8.50;6.50;;;;;;;5.42;85.44;95227.02;108805;1273;22539;-76
2024/02/24 05:12:10;;;;;;;9.00;6.60;;;;;;;5.45;85.59;95229.04;108772;1273;22552;-76
2024/02/24 05:14:43;;;;;;;8.10;6.00;;;;;;;5.43;85.44;95241.67;108813;1272;22523;-76
2024/02/24 05:17:16;;;;;;;7.50;5.10;;;;;;;5.40;85.36;95245.44;108769;1272;22529;-76
2024/02/24 05:19:50;;;;;;;5.40;4.30;;;;;;;5.34;85.30;95249.85;108741;1273;25471;-76
2024/02/24 05:22:24;;;;;;;7.30;5.30;;;;;;;5.26;85.09;95256.72;108809;1272;22575;-76
2024/02/24 05:25:07;;;;;;;9.10;6.40;;;;;;;5.23;85.76;95255.75;108780;1257;22533;-76
2024/02/24 05:27:40;;;;;;;6.30;4.90;;;;;;;5.27;86.30;95267.80;108821;1272;23746;-75
2024/02/24 05:30:15;;;;;;;6.60;4.00;;;;;;;5.27;85.97;95277.67;108769;1272;24214;-76
2024/02/24 05:32:47;;;;;;;5.90;4.30;;;;;;;5.23;85.52;95283.28;108845;1268;22542;-76
2024/02/24 05:35:18;;;;;;;8.70;5.50;;;;;;;5.07;85.29;95293.96;108801;1272;22551;-76
2024/02/24 05:37:49;;;;;;;8.10;5.40;;;;;;;4.98;85.97;95297.14;108816;1272;22523;-76
2024/02/24 05:40:25;;;;;;;7.60;4.70;;;;;;;5.02;86.57;95305.66;108793;1268;22561;-76
2024/02/24 05:42:59;;;;;;;7.80;5.30;;;;;;;5.07;87.02;95303.48;108848;1272;22585;-76
2024/02/24 05:45:37;;;;;;;6.60;5.10;;;;;;;5.16;87.41;95305.25;108753;1270;22579;-76
2024/02/24 05:48:09;;;;;;;10.10;7.60;;;;;;;5.24;87.36;95307.55;108790;1272;22650;-76
2024/02/24 05:50:40;;;;;;;8.40;6.80;;;;;;;4.92;85.79;95311.89;108738;1273;26219;-75
2024/02/24 05:53:12;;;;;;;8.20;5.60;;;;;;;4.61;86.16;95310.05;108807;1268;25776;-76
2024/02/24 05:55:46;;;;;;;8.00;5.00;;;;;;;4.58;86.93;95308.59;108768;1273;24196;-75
2024/02/24 05:58:21;;;;;;;8.70;7.30;;;;;;;4.56;86.80;95312.39;108804;1268;22595;-76
2024/02/24 06:00:55;;;;;;;9.10;7.20;;;;;;;4.47;86.95;95311.85;108780;1268;22547;-76
2024/02/24 06:03:28;;;;;;;8.50;6.30;;;;;;;4.53;87.85;95307.42;108822;1272;22785;-76
2024/02/24 06:06:07;;;;;;;5.90;4.50;;;;;;;4.63;88.06;95302.73;108755;1273;24226;-76
2024/02/24 06:08:40;;;;;;;6.90;4.40;;;;;;;4.76;88.43;95300.98;108836;1272;25207;-76
2024/02/24 06:11:12;;;;;;;6.60;3.90;;;;;;;4.90;88.57;95299.05;108798;1268;22516;-76
2024/02/24 06:13:45;;;;;;;6.80;4.90;;;;;;;5.05;88.95;95294.15;108767;1272;22522;-76
2024/02/24 06:16:16;;;;;;;7.50;5.30;;;;;;;5.23;89.28;95297.48;108755;1268;22644;-76
2024/02/24 06:18:47;;;;;;;8.60;5.30;;;;;;;5.37;89.16;95292.15;108810;1272;22535;-76
2024/02/24 06:21:20;;;;;;;6.80;4.80;;;;;;;5.49;88.98;95296.76;108758;1267;23072;-75
2024/02/24 06:23:51;;;;;;;7.00;5.00;;;;;;;5.66;88.75;95304.31;108808;1265;22544;-76
2024/02/24 06:26:26;;;;;;;6.10;5.30;;;;;;;5.86;88.58;95321.15;108816;1272;22663;-76
2024/02/24 06:28:57;;;;;;;8.00;5.70;;;;;;;6.17;88.61;95309.25;108853;1272;22524;-76
2024/02/24 06:31:30;;;;;;;8.10;5.40;;;;;;;6.69;89.14;95291.36;108763;1272;23875;-76
2024/02/24 06:34:04;;;;;;;23.80;12.10;;;;;;;7.31;89.07;95289.38;108796;1272;22927;-76
2024/02/24 06:36:36;;;;;;;11.70;8.30;;;;;;;7.99;89.12;95274.45;108774;1272;22527;-76
2024/02/24 06:39:10;;;;;;;9.40;6.90;;;;;;;8.66;88.46;95279.05;108776;1265;22549;-76
2024/02/24 06:41:41;;;;;;;10.90;7.60;;;;;;;9.61;87.94;95286.48;108769;1270;22549;-76
2024/02/24 06:44:15;;;;;;;13.60;10.60;;;;;;;10.40;87.27;95290.96;108791;1272;22682;-76
2024/02/24 06:46:46;;;;;;;17.90;13.90;;;;;;;11.43;86.44;95285.98;108781;1272;22523;-76
2024/02/24 06:49:19;;;;;;;10.20;8.00;;;;;;;12.45;85.23;95280.32;108772;1272;22521;-77
2024/02/24 06:51:52;;;;;;;6.40;5.10;;;;;;;13.46;83.77;95274.60;108795;1265;22521;-76
2024/02/24 06:54:23;;;;;;;4.70;3.90;;;;;;;14.27;82.07;95282.37;108786;1272;24152;-76
2024/02/24 06:56:57;;;;;;;7.20;6.40;;;;;;;14.95;80.98;95290.74;108796;1269;23703;-76
2024/02/24 06:59:30;;;;;;;9.40;8.50;;;;;;;15.47;79.91;95281.59;108785;1270;22517;-76
2024/02/24 07:02:04;;;;;;;6.40;5.60;;;;;;;15.78;78.93;95284.02;108746;1266;22676;-76
2024/02/24 07:04:38;;;;;;;6.80;5.10;;;;;;;16.05;77.95;95293.32;108803;1272;22582;-76
2024/02/24 07:07:11;;;;;;;5.00;4.50;;;;;;;16.37;77.31;95297.61;108741;1265;22570;-76
2024/02/24 07:09:43;;;;;;;4.70;4.20;;;;;;;16.43;76.25;95296.45;108738;1265;22523;-76
2024/02/24 07:12:23;;;;;;;6.00;4.90;;;;;;;16.06;74.91;95306.24;108836;1265;25490;-75
2024/02/24 07:14:58;;;;;;;5.60;4.90;;;;;;;15.64;74.07;95317.33;108854;1268;22543;-76
2024/02/24 07:17:34;;;;;;;6.80;5.30;;;;;;;15.22;74.22;95313.02;108830;1267;22514;-75
2024/02/24 07:20:11;;;;;;;6.90;5.30;;;;;;;14.90;73.83;95316.77;108793;1266;22543;-75
2024/02/24 07:22:48;;;;;;;7.40;4.90;;;;;;;14.15;72.57;95323.81;108849;1268;22700;-75
2024/02/24 07:25:23;;;;;;;5.80;4.90;;;;;;;13.32;72.15;95326.76;108843;1268;25988;-75
2024/02/24 07:27:54;;;;;;;6.50;4.90;;;;;;;13.06;73.02;95343.55;108836;1271;22524;-75
2024/02/24 07:30:26;;;;;;;8.40;6.00;;;;;;;13.02;72.77;95354.71;108803;1249;22516;-75
2024/02/24 07:33:00;;;;;;;7.70;5.30;;;;;;;12.44;72.24;95355.64;108830;1268;23946;-75
2024/02/24 07:35:34;;;;;;;6.00;5.20;;;;;;;12.01;72.57;95360.11;108838;1268;24203;-75
2024/02/24 07:38:08;;;;;;;7.50;5.70;;;;;;;11.72;72.60;95362.79;108840;1271;22548;-75
2024/02/24 07:40:42;;;;;;;8.70;6.20;;;;;;;11.45;72.92;95360.77;108845;1271;22543;-75
2024/02/24 07:43:18;;;;;;;8.60;5.90;;;;;;;11.12;72.95;95367.28;108851;1271;25311;-75
2024/02/24 07:45:49;;;;;;;8.70;6.50;;;;;;;11.02;73.57;95371.78;108807;1268;25255;-73
2024/02/24 07:48:23;;;;;;;7.10;5.40;;;;;;;11.16;74.26;95373.16;108898;1265;22523;-74
2024/02/24 07:50:56;;;;;;;7.00;5.10;;;;;;;11.31;74.21;95379.72;108836;1265;22567;-74
2024/02/24 07:53:27;;;;;;;6.00;5.40;;;;;;;11.32;74.05;95375.13;108849;1260;24196;-75
2024/02/24 07:55:58;;;;;;;5.80;4.80;;;;;;;11.23;73.53;95374.85;108835;1271;22508;-75
2024/02/24 07:58:32;;;;;;;5.90;4.60;;;;;;;11.03;73.47;95383.27;108794;1268;22523;-75
2024/02/24 08:01:05;;;;;;;3.90;3.40;;;;;;;11.00;73.89;95389.30;108838;1264;22529;-75
2024/02/24 08:03:36;;;;;;;2.00;1.70;;;;;;;10.92;73.49;95387.98;108827;1265;25438;-74
2024/02/24 08:06:08;;;;;;;2.40;1.70;;;;;;;10.70;73.08;95391.83;108810;1265;25223;-75
2024/02/24 08:08:39;;;;;;;1.80;1.20;;;;;;;10.56;72.98;95399.75;108852;1271;22555;-75
2024/02/24 08:11:13;;;;;;;1.60;1.50;;;;;;;10.43;72.67;95401.27;108810;1271;22564;-75
2024/02/24 08:13:46;;;;;;;2.60;1.20;;;;;;;10.34;72.87;95400.61;108830;1271;22582;-75
2024/02/24 08:16:25;;;;;;;2.10;1.40;;;;;;;10.32;73.14;95403.38;108812;1264;22543;-74
2024/02/24 08:18:59;;;;;;;2.70;1.50;;;;;;;10.30;73.28;95411.60;108822;1266;22568;-74
2024/02/24 08:21:36;;;;;;;1.50;1.20;;;;;;;10.31;73.21;95412.09;108813;1271;22850;-75
2024/02/24 08:24:16;;;;;;;1.70;1.30;;;;;;;10.30;72.62;95421.66;108930;1268;24191;-75
2024/02/24 08:26:49;;;;;;;1.60;1.30;;;;;;;10.35;73.02;95430.09;108836;1268;23930;-75
2024/02/24 08:29:21;;;;;;;1.70;1.30;;;;;;;10.46;73.13;95438.25;108845;1271;25425;-75
2024/02/24 08:31:53;;;;;;;4.00;2.00;;;;;;;10.52;72.87;95433.67;108705;1265;25425;-75
2024/02/24 08:34:26;;;;;;;2.10;1.70;;;;;;;10.53;72.33;95434.58;108660;1265;22526;-74
2024/02/24 08:37:00;;;;;;;2.70;1.50;;;;;;;10.57;72.10;95435.05;108827;1267;22532;-74
2024/02/24 08:39:34;;;;;;;1.60;1.50;;;;;;;10.60;71.35;95440.51;108616;1263;22548;-75
2024/02/24 08:42:08;;;;;;;2.20;1.50;;;;;;;10.57;70.86;95447.20;108719;1265;23565;-75
2024/02/24 08:44:39;;;;;;;2.90;2.00;;;;;;;10.57;70.37;95448.08;108676;1265;22583;-75
2024/02/24 08:47:13;;;;;;;2.90;1.50;;;;;;;10.73;71.20;95449.76;108688;1268;23717;-75
2024/02/24 08:49:44;;;;;;;2.90;2.30;;;;;;;11.16;71.08;95444.13;108612;1270;24246;-75
2024/02/24 08:52:15;;;;;;;2.30;2.10;;;;;;;11.76;70.83;95450.78;108636;1265;22513;-75
2024/02/24 08:54:48;;;;;;;3.20;2.10;;;;;;;11.87;69.25;95460.48;108785;1271;22561;-75
2024/02/24 08:57:23;;;;;;;2.10;1.90;;;;;;;11.79;69.47;95461.23;108794;1271;22513;-76
2024/02/24 08:59:56;;;;;;;3.00;1.90;;;;;;;12.13;69.94;95458.38;108792;1271;22578;-75
2024/02/24 09:02:32;;;;;;;2.40;1.70;;;;;;;12.25;69.32;95455.83;108469;1265;25217;-73
2024/02/24 09:05:06;;;;;;;2.80;1.70;;;;;;;12.27;68.66;95452.82;108713;1265;22573;-75
2024/02/24 09:07:39;;;;;;;3.20;2.20;;;;;;;12.30;68.47;95455.96;108679;1266;25394;-75
2024/02/24 09:10:11;;;;;;;2.30;1.90;;;;;;;12.77;69.47;95463.05;108565;1268;22523;-75
2024/02/24 09:12:43;;;;;;;3.20;2.10;;;;;;;13.18;69.01;95462.30;108773;1266;23799;-74
2024/02/24 09:15:17;;;;;;;2.20;1.60;;;;;;;13.20;67.43;95458.30;108733;1271;25405;-75
2024/02/24 09:17:49;;;;;;;2.10;1.40;;;;;;;12.77;65.37;95463.40;108747;1270;26491;-75
2024/02/24 09:20:32;;;;;;;1.40;1.10;;;;;;;12.36;63.42;95463.52;108645;1268;24684;-74
2024/02/24 09:23:06;;;;;;;1.80;1.50;;;;;;;12.14;64.10;95474.73;108849;1271;22543;-74
2024/02/24 09:25:40;;;;;;;1.90;1.50;;;;;;;12.41;64.59;95471.79;108849;1268;22551;-75
2024/02/24 09:28:13;;;;;;;2.70;1.80;;;;;;;12.45;63.81;95472.84;108771;1264;26529;-74
2024/02/24 09:30:46;;;;;;;3.00;1.60;;;;;;;12.33;63.16;95477.66;108800;1271;22690;-74
2024/02/24 09:33:20;;;;;;;3.10;2.10;;;;;;;12.17;62.33;95480.81;108799;1271;22531;-74
2024/02/24 09:35:55;;;;;;;3.20;1.70;;;;;;;12.26;63.54;95485.95;108791;1265;22517;-74
2024/02/24 09:38:29;;;;;;;3.80;1.90;;;;;;;12.35;63.15;95496.02;108816;1271;22633;-76
2024/02/24 09:41:01;;;;;;;1.80;1.40;;;;;;;12.39;63.28;95505.50;108811;1265;25601;-75
2024/02/24 09:43:33;;;;;;;1.40;1.20;;;;;;;12.55;62.19;95492.02;108872;1269;22517;-75
2024/02/24 09:46:08;;;;;;;2.30;1.50;;;;;;;12.55;60.18;95506.05;108862;1271;23639;-75
2024/02/24 09:48:42;;;;;;;1.70;1.10;;;;;;;12.43;60.25;95513.18;108798;1271;22569;-74
2024/02/24 09:51:16;;;;;;;2.20;1.40;;;;;;;12.29;59.74;95524.50;108804;1265;56760;-74
2024/02/24 09:53:48;;;;;;;3.00;1.70;;;;;;;12.18;58.95;95509.00;108845;1271;23632;-75
2024/02/24 09:56:26;;;;;;;2.60;1.60;;;;;;;12.12;59.81;95524.09;108735;1271;22616;-75
2024/02/24 09:59:02;;;;;;;1.60;1.40;;;;;;;12.08;58.50;95535.44;108709;1270;22596;-75
2024/02/24 10:01:37;;;;;;;2.50;1.90;;;;;;;11.99;59.07;95525.63;108860;1271;25220;-74
2024/02/24 10:04:09;;;;;;;2.70;1.70;;;;;;;11.97;58.73;95531.23;108811;1271;23902;-74
2024/02/24 10:06:47;;;;;;;2.90;1.90;;;;;;;12.00;59.94;95545.23;108795;1271;22919;-75
2024/02/24 10:09:27;;;;;;;3.90;2.20;;;;;;;12.17;59.60;95544.86;108803;1271;22619;-76
2024/02/24 10:12:00;;;;;;;8.90;4.40;;;;;;;12.16;59.13;95552.86;108785;1268;23622;-75
2024/02/24 10:14:34;;;;;;;3.60;2.30;;;;;;;12.12;59.32;95552.16;108771;1271;22550;-75
2024/02/24 10:17:08;;;;;;;2.50;1.80;;;;;;;12.22;59.98;95550.23;108789;1271;25255;-75
2024/02/24 10:19:42;;;;;;;2.90;2.00;;;;;;;12.37;59.16;95549.06;108782;1270;22549;-75
2024/02/24 10:22:19;;;;;;;3.20;2.20;;;;;;;12.45;58.97;95555.27;108816;1271;22515;-75
2024/02/24 10:24:52;;;;;;;1.20;1.10;;;;;;;12.55;59.31;95567.27;108884;1268;22802;-75
2024/02/24 10:27:31;;;;;;;3.10;2.10;;;;;;;12.67;58.62;95565.28;108877;1271;22590;-75
2024/02/24 10:30:04;;;;;;;2.90;1.30;;;;;;;12.72;58.24;95563.58;108816;1255;22659;-75
2024/02/24 10:32:36;;;;;;;3.50;2.30;;;;;;;12.63;57.23;95564.12;108844;1268;22524;-75
2024/02/24 10:35:11;;;;;;;2.80;1.50;;;;;;;12.69;58.22;95564.52;108871;1268;22558;-75
2024/02/24 10:37:45;;;;;;;2.40;1.70;;;;;;;12.64;56.53;95564.52;108888;1268;22656;-75
2024/02/24 10:40:23;;;;;;;2.10;1.40;;;;;;;12.58;57.19;95573.23;108765;1271;25513;-75
2024/02/24 10:43:03;;;;;;;3.00;1.30;;;;;;;12.67;57.11;95568.13;108879;1268;25499;-75
2024/02/24 10:45:39;;;;;;;2.00;1.80;;;;;;;12.59;55.44;95575.58;108799;1271;24307;-75
2024/02/24 10:48:13;;;;;;;1.80;1.50;;;;;;;12.53;55.58;95580.84;108820;1268;23882;-76
2024/02/24 10:50:48;;;;;;;2.00;1.40;;;;;;;12.66;56.73;95597.84;108857;1258;24080;-75
2024/02/24 10:53:31;;;;;;;1.70;1.10;;;;;;;12.66;54.99;95600.77;108825;1268;25428;-76
2024/02/24 10:56:07;;;;;;;1.70;1.40;;;;;;;12.52;55.21;95608.48;108872;1272;22556;-76
2024/02/24 10:58:40;;;;;;;2.70;1.70;;;;;;;12.55;56.18;95617.63;108823;1272;22558;-75
2024/02/24 11:01:12;;;;;;;2.60;1.40;;;;;;;12.62;56.28;95612.08;108831;1268;22545;-75
2024/02/24 11:03:49;;;;;;;2.70;1.60;;;;;;;12.74;57.08;95613.38;108795;1268;22792;-75
2024/02/24 11:06:50;;;;;;;3.00;2.00;;;;;;;12.95;57.62;95617.36;108841;1268;25265;-75
2024/02/24 11:09:35;;;;;;;2.80;1.70;;;;;;;13.02;56.78;95620.02;108793;1266;22481;-75
2024/02/24 11:12:12;;;;;;;3.70;2.00;;;;;;;13.08;57.03;95628.45;108848;1265;22536;-75
2024/02/24 11:14:55;;;;;;;4.70;2.40;;;;;;;13.11;57.50;95633.52;108796;1268;22586;-75
2024/02/24 11:17:48;;;;;;;3.30;2.20;;;;;;;13.00;58.24;95634.45;108882;1271;23863;-75
2024/02/24 11:20:56;;;;;;;2.60;1.40;;;;;;;13.08;58.71;95633.71;108811;1265;23900;-75
2024/02/24 11:23:44;;;;;;;3.80;2.40;;;;;;;13.36;58.24;95642.02;108804;1268;25445;-75
2024/02/24 11:26:33;;;;;;;3.10;2.40;;;;;;;13.35;58.38;95651.87;108758;1268;22536;-75
2024/02/24 11:29:08;;;;;;;14.00;2.70;;;;;;;13.48;59.67;95645.84;108799;1271;24100;-76
2024/02/24 11:31:49;;;;;;;3.40;1.90;;;;;;;13.59;59.54;95653.21;108812;1268;22527;-76
2024/02/24 11:34:32;;;;;;;3.70;2.50;;;;;;;13.38;58.25;95659.84;108656;1266;22529;-75
2024/02/24 11:37:05;;;;;;;4.00;2.20;;;;;;;13.23;58.83;95657.77;108477;1265;22986;-75
2024/02/24 11:39:40;;;;;;;4.40;2.60;;;;;;;13.17;59.01;95662.30;108600;1267;22527;-76
2024/02/24 11:42:14;;;;;;;3.40;2.50;;;;;;;12.99;59.42;95669.60;108776;1271;24349;-75
2024/02/24 11:44:54;;;;;;;4.10;2.50;;;;;;;12.73;60.09;95685.73;108791;1271;22520;-76
2024/02/24 11:47:30;;;;;;;2.70;2.00;;;;;;;12.18;60.40;95674.02;108710;1271;25268;-75
2024/02/24 11:50:01;;;;;;;1.90;1.60;;;;;;;11.67;60.94;95668.17;108824;1271;22636;-75
2024/02/24 11:52:37;;;;;;;1.90;1.50;;;;;;;11.79;59.22;95676.55;108834;1271;22555;-76
2024/02/24 11:55:11;;;;;;;2.50;2.00;;;;;;;12.25;58.95;95671.15;108818;1271;22592;-75
2024/02/24 11:57:43;;;;;;;4.30;3.30;;;;;;;12.11;58.80;95679.85;108865;1268;22529;-75
2024/02/24 12:00:18;;;;;;;4.30;3.00;;;;;;;11.35;61.31;95694.65;108809;1271;25435;-75
2024/02/24 12:02:55;;;;;;;4.80;3.40;;;;;;;10.76;63.27;95701.56;108861;1271;22537;-75